Bertram, Texas
Current Conditions -  °F | °C
As of 5:53 PM on Sunday 25 Jan 2015 (Local Time) from KBMQ Reporting Station
Clear Clear  
Wind Chill: 60°   Ceiling: Unl
Heat Index: 60°   Visibility: 10mi
Dew Point: 27°   Wind: 9mph
Humidity: 28%   Direction: 350°N
Pressure: 30.17"   Gusts: NA
Location:  30.74°N, 98.06°W
Report Text: KBMQ 252353Z AUTO 35008KT 10SM CLR 16/M03 A3017 RMK AO2 SLP211 T01561028 53008 $
Loading
Personal Weather Stations






























Interactive Weather Map New forecast layout! Learn more

10-Day Weather Forecast

Advertisements
Track Severe Weather on mobile